sensor_id;sensor_type;location;lat;lon;timestamp;P1;durP1;ratioP1;P2;durP2;ratioP2
60614;SDS011;46444;45.590;5.284;2023-04-03T00:01:50;308.05;;;293.17;;
60614;SDS011;46444;45.590;5.284;2023-04-03T00:07:46;287.13;;;273.33;;
60614;SDS011;46444;45.590;5.284;2023-04-03T00:10:18;307.55;;;291.92;;
60614;SDS011;46444;45.590;5.284;2023-04-03T00:12:46;319.60;;;303.63;;
60614;SDS011;46444;45.590;5.284;2023-04-03T00:15:11;334.27;;;317.75;;
60614;SDS011;46444;45.590;5.284;2023-04-03T00:17:37;275.00;;;261.55;;
60614;SDS011;46444;45.590;5.284;2023-04-03T00:20:03;322.92;;;307.10;;
60614;SDS011;46444;45.590;5.284;2023-04-03T00:22:33;295.67;;;281.15;;
60614;SDS011;46444;45.590;5.284;2023-04-03T00:25:06;314.23;;;298.63;;
60614;SDS011;46444;45.590;5.284;2023-04-03T00:27:33;325.27;;;308.95;;
60614;SDS011;46444;45.590;5.284;2023-04-03T00:30:00;300.60;;;285.52;;
60614;SDS011;46444;45.590;5.284;2023-04-03T00:32:28;318.55;;;302.52;;
60614;SDS011;46444;45.590;5.284;2023-04-03T00:34:55;330.30;;;313.88;;
60614;SDS011;46444;45.590;5.284;2023-04-03T00:37:21;276.67;;;262.30;;
60614;SDS011;46444;45.590;5.284;2023-04-03T00:39:52;316.55;;;301.15;;
60614;SDS011;46444;45.590;5.284;2023-04-03T00:42:17;252.32;;;239.02;;
60614;SDS011;46444;45.590;5.284;2023-04-03T00:48:25;264.73;;;250.88;;
60614;SDS011;46444;45.590;5.284;2023-04-03T00:50:54;271.90;;;257.83;;
60614;SDS011;46444;45.590;5.284;2023-04-03T00:53:47;250.82;;;238.40;;
60614;SDS011;46444;45.590;5.284;2023-04-03T00:56:47;279.35;;;264.10;;
60614;SDS011;46444;45.590;5.284;2023-04-03T00:59:15;257.83;;;245.38;;
60614;SDS011;46444;45.590;5.284;2023-04-03T01:01:47;361.40;;;341.00;;
60614;SDS011;46444;45.590;5.284;2023-04-03T01:05:11;331.85;;;313.17;;
60614;SDS011;46444;45.590;5.284;2023-04-03T01:08:20;339.98;;;320.85;;
60614;SDS011;46444;45.590;5.284;2023-04-03T01:10:46;299.63;;;283.38;;
60614;SDS011;46444;45.590;5.284;2023-04-03T01:13:23;410.50;;;387.58;;
60614;SDS011;46444;45.590;5.284;2023-04-03T01:16:19;375.73;;;354.25;;
60614;SDS011;46444;45.590;5.284;2023-04-03T01:18:47;388.60;;;367.48;;
60614;SDS011;46444;45.590;5.284;2023-04-03T01:27:07;393.02;;;371.77;;
60614;SDS011;46444;45.590;5.284;2023-04-03T01:29:37;335.63;;;317.30;;
60614;SDS011;46444;45.590;5.284;2023-04-03T01:32:22;410.40;;;388.05;;
60614;SDS011;46444;45.590;5.284;2023-04-03T01:35:51;368.13;;;348.10;;
60614;SDS011;46444;45.590;5.284;2023-04-03T01:38:17;422.17;;;397.70;;
60614;SDS011;46444;45.590;5.284;2023-04-03T01:41:17;382.15;;;360.63;;
60614;SDS011;46444;45.590;5.284;2023-04-03T01:44:11;374.52;;;354.52;;
60614;SDS011;46444;45.590;5.284;2023-04-03T01:46:41;365.98;;;346.20;;
60614;SDS011;46444;45.590;5.284;2023-04-03T01:49:17;355.50;;;336.33;;
60614;SDS011;46444;45.590;5.284;2023-04-03T01:52:38;352.05;;;332.90;;
60614;SDS011;46444;45.590;5.284;2023-04-03T01:55:25;414.90;;;390.95;;
60614;SDS011;46444;45.590;5.284;2023-04-03T01:58:04;425.65;;;400.80;;
60614;SDS011;46444;45.590;5.284;2023-04-03T02:00:33;325.77;;;308.50;;
60614;SDS011;46444;45.590;5.284;2023-04-03T02:03:06;371.02;;;350.67;;
60614;SDS011;46444;45.590;5.284;2023-04-03T02:06:07;396.27;;;374.52;;
60614;SDS011;46444;45.590;5.284;2023-04-03T02:08:33;459.05;;;432.33;;
60614;SDS011;46444;45.590;5.284;2023-04-03T02:11:02;405.38;;;382.00;;
60614;SDS011;46444;45.590;5.284;2023-04-03T02:16:40;396.02;;;373.83;;
60614;SDS011;46444;45.590;5.284;2023-04-03T02:19:36;334.40;;;316.17;;
60614;SDS011;46444;45.590;5.284;2023-04-03T02:22:10;375.00;;;354.50;;
60614;SDS011;46444;45.590;5.284;2023-04-03T02:24:45;368.92;;;349.00;;
60614;SDS011;46444;45.590;5.284;2023-04-03T02:27:12;378.23;;;357.73;;
60614;SDS011;46444;45.590;5.284;2023-04-03T02:29:43;353.50;;;334.67;;
60614;SDS011;46444;45.590;5.284;2023-04-03T02:32:09;380.02;;;359.65;;
60614;SDS011;46444;45.590;5.284;2023-04-03T02:34:40;381.23;;;360.90;;
60614;SDS011;46444;45.590;5.284;2023-04-03T02:37:09;371.35;;;350.90;;
60614;SDS011;46444;45.590;5.284;2023-04-03T02:39:35;400.15;;;378.08;;
60614;SDS011;46444;45.590;5.284;2023-04-03T02:42:02;342.77;;;324.50;;
60614;SDS011;46444;45.590;5.284;2023-04-03T02:44:31;391.85;;;370.17;;
60614;SDS011;46444;45.590;5.284;2023-04-03T02:47:01;342.95;;;324.48;;
60614;SDS011;46444;45.590;5.284;2023-04-03T02:49:27;381.05;;;360.17;;
60614;SDS011;46444;45.590;5.284;2023-04-03T02:51:53;418.38;;;395.45;;
60614;SDS011;46444;45.590;5.284;2023-04-03T02:54:22;364.42;;;345.05;;
60614;SDS011;46444;45.590;5.284;2023-04-03T02:57:04;397.85;;;375.92;;
60614;SDS011;46444;45.590;5.284;2023-04-03T03:00:27;380.00;;;359.40;;
60614;SDS011;46444;45.590;5.284;2023-04-03T03:02:54;366.10;;;346.40;;
60614;SDS011;46444;45.590;5.284;2023-04-03T03:05:25;398.10;;;376.60;;
60614;SDS011;46444;45.590;5.284;2023-04-03T03:07:51;398.17;;;376.55;;
60614;SDS011;46444;45.590;5.284;2023-04-03T03:10:18;393.92;;;372.70;;
60614;SDS011;46444;45.590;5.284;2023-04-03T03:12:53;404.02;;;382.25;;
60614;SDS011;46444;45.590;5.284;2023-04-03T03:16:31;391.55;;;370.63;;
60614;SDS011;46444;45.590;5.284;2023-04-03T03:19:01;394.55;;;373.35;;
60614;SDS011;46444;45.590;5.284;2023-04-03T03:21:27;387.73;;;367.00;;
60614;SDS011;46444;45.590;5.284;2023-04-03T03:24:05;395.15;;;373.75;;
60614;SDS011;46444;45.590;5.284;2023-04-03T03:27:19;421.20;;;397.85;;
60614;SDS011;46444;45.590;5.284;2023-04-03T03:30:52;379.65;;;359.30;;
60614;SDS011;46444;45.590;5.284;2023-04-03T03:37:10;350.70;;;332.00;;
60614;SDS011;46444;45.590;5.284;2023-04-03T03:40:00;344.63;;;326.10;;
60614;SDS011;46444;45.590;5.284;2023-04-03T03:43:50;391.73;;;370.05;;
60614;SDS011;46444;45.590;5.284;2023-04-03T03:46:48;450.20;;;425.25;;
60614;SDS011;46444;45.590;5.284;2023-04-03T03:49:32;381.73;;;360.52;;
60614;SDS011;46444;45.590;5.284;2023-04-03T03:52:00;356.25;;;337.35;;
60614;SDS011;46444;45.590;5.284;2023-04-03T03:54:56;366.85;;;347.23;;
60614;SDS011;46444;45.590;5.284;2023-04-03T03:57:59;330.33;;;312.38;;
60614;SDS011;46444;45.590;5.284;2023-04-03T04:01:42;295.80;;;279.55;;
60614;SDS011;46444;45.590;5.284;2023-04-03T04:04:11;359.77;;;340.33;;
60614;SDS011;46444;45.590;5.284;2023-04-03T04:06:37;379.10;;;358.15;;
60614;SDS011;46444;45.590;5.284;2023-04-03T04:09:35;317.03;;;299.73;;
60614;SDS011;46444;45.590;5.284;2023-04-03T04:12:40;290.98;;;275.08;;
60614;SDS011;46444;45.590;5.284;2023-04-03T04:54:08;335.17;;;315.63;;
60614;SDS011;46444;45.590;5.284;2023-04-03T05:22:25;427.73;;;404.65;;
60614;SDS011;46444;45.590;5.284;2023-04-03T05:24:50;389.30;;;368.73;;
60614;SDS011;46444;45.590;5.284;2023-04-03T05:27:15;359.85;;;339.90;;
60614;SDS011;46444;45.590;5.284;2023-04-03T05:29:41;432.52;;;408.48;;
60614;SDS011;46444;45.590;5.284;2023-04-03T05:32:08;333.42;;;314.77;;
60614;SDS011;46444;45.590;5.284;2023-04-03T05:34:34;427.15;;;404.00;;
60614;SDS011;46444;45.590;5.284;2023-04-03T05:37:00;479.15;;;453.00;;
60614;SDS011;46444;45.590;5.284;2023-04-03T05:39:25;298.40;;;281.70;;
60614;SDS011;46444;45.590;5.284;2023-04-03T05:41:50;306.65;;;289.42;;
60614;SDS011;46444;45.590;5.284;2023-04-03T05:44:16;423.90;;;400.35;;
60614;SDS011;46444;45.590;5.284;2023-04-03T05:46:41;416.08;;;394.13;;
60614;SDS011;46444;45.590;5.284;2023-04-03T05:49:06;392.05;;;370.17;;
60614;SDS011;46444;45.590;5.284;2023-04-03T05:51:33;410.40;;;387.13;;
60614;SDS011;46444;45.590;5.284;2023-04-03T05:54:03;336.10;;;316.98;;
60614;SDS011;46444;45.590;5.284;2023-04-03T05:56:34;394.85;;;373.25;;
60614;SDS011;46444;45.590;5.284;2023-04-03T05:59:00;302.73;;;286.08;;
60614;SDS011;46444;45.590;5.284;2023-04-03T06:01:25;369.52;;;349.13;;
60614;SDS011;46444;45.590;5.284;2023-04-03T06:03:52;423.60;;;400.83;;
60614;SDS011;46444;45.590;5.284;2023-04-03T06:06:17;434.60;;;411.10;;
60614;SDS011;46444;45.590;5.284;2023-04-03T06:08:43;366.55;;;346.02;;
60614;SDS011;46444;45.590;5.284;2023-04-03T06:11:08;444.95;;;421.23;;
60614;SDS011;46444;45.590;5.284;2023-04-03T06:13:34;419.70;;;396.80;;
60614;SDS011;46444;45.590;5.284;2023-04-03T06:16:00;390.73;;;368.63;;
60614;SDS011;46444;45.590;5.284;2023-04-03T06:18:25;403.67;;;381.52;;
60614;SDS011;46444;45.590;5.284;2023-04-03T06:20:51;402.95;;;380.25;;
60614;SDS011;46444;45.590;5.284;2023-04-03T06:23:16;375.67;;;354.55;;
60614;SDS011;46444;45.590;5.284;2023-04-03T06:25:42;349.40;;;330.02;;
60614;SDS011;46444;45.590;5.284;2023-04-03T06:28:08;312.85;;;295.65;;
60614;SDS011;46444;45.590;5.284;2023-04-03T06:30:35;306.65;;;289.67;;
60614;SDS011;46444;45.590;5.284;2023-04-03T06:33:01;328.05;;;309.63;;
60614;SDS011;46444;45.590;5.284;2023-04-03T06:35:26;310.60;;;293.77;;
60614;SDS011;46444;45.590;5.284;2023-04-03T06:37:53;268.65;;;254.57;;
60614;SDS011;46444;45.590;5.284;2023-04-03T06:40:19;258.45;;;245.20;;
60614;SDS011;46444;45.590;5.284;2023-04-03T06:42:47;278.90;;;265.25;;
60614;SDS011;46444;45.590;5.284;2023-04-03T06:45:13;341.33;;;323.80;;
60614;SDS011;46444;45.590;5.284;2023-04-03T06:47:38;300.40;;;285.23;;
60614;SDS011;46444;45.590;5.284;2023-04-03T06:50:04;302.25;;;287.58;;
60614;SDS011;46444;45.590;5.284;2023-04-03T06:52:30;319.33;;;303.75;;
60614;SDS011;46444;45.590;5.284;2023-04-03T06:54:56;310.55;;;295.73;;
60614;SDS011;46444;45.590;5.284;2023-04-03T06:57:24;293.73;;;279.70;;
60614;SDS011;46444;45.590;5.284;2023-04-03T06:59:50;305.20;;;290.65;;
60614;SDS011;46444;45.590;5.284;2023-04-03T07:02:15;298.98;;;284.42;;
60614;SDS011;46444;45.590;5.284;2023-04-03T07:04:40;357.23;;;339.83;;
60614;SDS011;46444;45.590;5.284;2023-04-03T07:07:06;344.65;;;327.85;;
60614;SDS011;46444;45.590;5.284;2023-04-03T07:09:31;343.25;;;326.45;;
60614;SDS011;46444;45.590;5.284;2023-04-03T07:11:57;373.15;;;354.95;;
60614;SDS011;46444;45.590;5.284;2023-04-03T07:14:22;358.60;;;341.08;;
60614;SDS011;46444;45.590;5.284;2023-04-03T07:16:47;341.95;;;325.02;;
60614;SDS011;46444;45.590;5.284;2023-04-03T07:19:13;346.83;;;329.60;;
60614;SDS011;46444;45.590;5.284;2023-04-03T07:21:38;324.92;;;308.23;;
60614;SDS011;46444;45.590;5.284;2023-04-03T07:24:04;356.35;;;339.00;;
60614;SDS011;46444;45.590;5.284;2023-04-03T07:26:29;369.80;;;351.63;;
60614;SDS011;46444;45.590;5.284;2023-04-03T07:28:55;358.13;;;340.83;;
60614;SDS011;46444;45.590;5.284;2023-04-03T07:31:21;232.40;;;220.88;;
60614;SDS011;46444;45.590;5.284;2023-04-03T07:33:46;284.35;;;270.35;;
60614;SDS011;46444;45.590;5.284;2023-04-03T07:36:14;276.45;;;262.70;;
60614;SDS011;46444;45.590;5.284;2023-04-03T07:38:41;291.57;;;277.03;;
60614;SDS011;46444;45.590;5.284;2023-04-03T07:41:07;276.58;;;262.90;;
60614;SDS011;46444;45.590;5.284;2023-04-03T07:43:38;250.65;;;238.23;;
60614;SDS011;46444;45.590;5.284;2023-04-03T07:46:04;264.40;;;251.18;;
60614;SDS011;46444;45.590;5.284;2023-04-03T07:48:30;281.50;;;267.48;;
60614;SDS011;46444;45.590;5.284;2023-04-03T07:50:58;277.90;;;263.95;;
60614;SDS011;46444;45.590;5.284;2023-04-03T07:53:25;258.92;;;245.95;;
60614;SDS011;46444;45.590;5.284;2023-04-03T07:55:50;245.00;;;232.40;;
60614;SDS011;46444;45.590;5.284;2023-04-03T07:58:20;266.48;;;253.15;;
60614;SDS011;46444;45.590;5.284;2023-04-03T08:00:45;268.05;;;254.50;;
60614;SDS011;46444;45.590;5.284;2023-04-03T08:03:11;254.95;;;241.98;;
60614;SDS011;46444;45.590;5.284;2023-04-03T08:05:38;241.45;;;228.35;;
60614;SDS011;46444;45.590;5.284;2023-04-03T08:08:07;245.18;;;232.50;;
60614;SDS011;46444;45.590;5.284;2023-04-03T08:10:33;275.40;;;260.73;;
60614;SDS011;46444;45.590;5.284;2023-04-03T08:12:59;269.45;;;255.32;;
60614;SDS011;46444;45.590;5.284;2023-04-03T08:15:25;245.80;;;233.15;;
60614;SDS011;46444;45.590;5.284;2023-04-03T08:17:51;258.80;;;245.55;;
60614;SDS011;46444;45.590;5.284;2023-04-03T08:20:17;270.02;;;255.65;;
60614;SDS011;46444;45.590;5.284;2023-04-03T08:22:42;251.70;;;238.65;;
60614;SDS011;46444;45.590;5.284;2023-04-03T08:25:07;258.63;;;244.82;;
60614;SDS011;46444;45.590;5.284;2023-04-03T08:27:33;334.58;;;316.48;;
60614;SDS011;46444;45.590;5.284;2023-04-03T08:29:59;225.27;;;213.57;;
60614;SDS011;46444;45.590;5.284;2023-04-03T08:32:24;286.23;;;271.50;;
60614;SDS011;46444;45.590;5.284;2023-04-03T08:34:50;364.48;;;346.25;;
60614;SDS011;46444;45.590;5.284;2023-04-03T08:37:16;357.38;;;339.70;;
60614;SDS011;46444;45.590;5.284;2023-04-03T08:39:42;318.25;;;302.63;;
60614;SDS011;46444;45.590;5.284;2023-04-03T08:42:15;304.42;;;289.35;;
60614;SDS011;46444;45.590;5.284;2023-04-03T08:45:17;347.90;;;330.60;;
60614;SDS011;46444;45.590;5.284;2023-04-03T08:48:00;378.65;;;360.30;;
60614;SDS011;46444;45.590;5.284;2023-04-03T08:50:33;309.20;;;294.05;;
60614;SDS011;46444;45.590;5.284;2023-04-03T08:53:02;363.80;;;345.73;;
60614;SDS011;46444;45.590;5.284;2023-04-03T08:55:33;313.60;;;297.95;;
60614;SDS011;46444;45.590;5.284;2023-04-03T08:58:05;333.10;;;316.67;;
60614;SDS011;46444;45.590;5.284;2023-04-03T09:00:59;324.52;;;308.80;;
60614;SDS011;46444;45.590;5.284;2023-04-03T09:03:29;326.40;;;310.35;;
60614;SDS011;46444;45.590;5.284;2023-04-03T09:05:59;320.33;;;304.65;;
60614;SDS011;46444;45.590;5.284;2023-04-03T09:08:32;335.75;;;319.23;;
60614;SDS011;46444;45.590;5.284;2023-04-03T09:13:49;316.52;;;301.05;;
60614;SDS011;46444;45.590;5.284;2023-04-03T09:21:59;305.48;;;290.63;;
60614;SDS011;46444;45.590;5.284;2023-04-03T09:24:34;277.05;;;263.45;;
60614;SDS011;46444;45.590;5.284;2023-04-03T09:27:03;279.23;;;265.95;;
60614;SDS011;46444;45.590;5.284;2023-04-03T09:29:31;285.98;;;271.92;;
60614;SDS011;46444;45.590;5.284;2023-04-03T09:32:01;257.48;;;245.23;;
60614;SDS011;46444;45.590;5.284;2023-04-03T09:34:30;313.58;;;298.27;;
60614;SDS011;46444;45.590;5.284;2023-04-03T09:36:59;287.23;;;273.42;;
60614;SDS011;46444;45.590;5.284;2023-04-03T09:39:30;276.88;;;263.27;;
60614;SDS011;46444;45.590;5.284;2023-04-03T09:42:14;254.02;;;241.63;;
60614;SDS011;46444;45.590;5.284;2023-04-03T09:44:44;310.35;;;294.73;;
60614;SDS011;46444;45.590;5.284;2023-04-03T09:52:37;293.60;;;279.38;;
60614;SDS011;46444;45.590;5.284;2023-04-03T09:55:16;307.00;;;291.88;;
60614;SDS011;46444;45.590;5.284;2023-04-03T09:57:44;299.55;;;284.95;;
60614;SDS011;46444;45.590;5.284;2023-04-03T10:00:24;273.00;;;259.65;;
60614;SDS011;46444;45.590;5.284;2023-04-03T10:02:55;286.33;;;272.15;;
60614;SDS011;46444;45.590;5.284;2023-04-03T10:05:37;325.60;;;309.50;;
60614;SDS011;46444;45.590;5.284;2023-04-03T10:10:42;314.50;;;299.02;;
60614;SDS011;46444;45.590;5.284;2023-04-03T10:15:44;283.60;;;270.13;;
60614;SDS011;46444;45.590;5.284;2023-04-03T10:18:32;290.85;;;277.13;;
60614;SDS011;46444;45.590;5.284;2023-04-03T10:21:08;246.67;;;235.17;;
60614;SDS011;46444;45.590;5.284;2023-04-03T10:23:44;202.13;;;192.45;;
60614;SDS011;46444;45.590;5.284;2023-04-03T10:31:46;302.00;;;287.90;;
60614;SDS011;46444;45.590;5.284;2023-04-03T10:34:23;236.02;;;224.88;;
60614;SDS011;46444;45.590;5.284;2023-04-03T10:47:49;194.25;;;184.98;;
60614;SDS011;46444;45.590;5.284;2023-04-03T10:50:43;206.50;;;196.80;;
60614;SDS011;46444;45.590;5.284;2023-04-03T10:58:44;88.75;;;84.30;;
60614;SDS011;46444;45.590;5.284;2023-04-03T11:01:13;103.45;;;98.20;;
60614;SDS011;46444;45.590;5.284;2023-04-03T11:03:45;117.82;;;111.80;;
60614;SDS011;46444;45.590;5.284;2023-04-03T11:06:14;141.55;;;134.57;;
60614;SDS011;46444;45.590;5.284;2023-04-03T11:08:45;229.52;;;218.88;;
60614;SDS011;46444;45.590;5.284;2023-04-03T11:11:16;219.10;;;208.80;;
60614;SDS011;46444;45.590;5.284;2023-04-03T11:13:50;156.00;;;148.43;;
60614;SDS011;46444;45.590;5.284;2023-04-03T11:16:23;129.07;;;122.68;;
60614;SDS011;46444;45.590;5.284;2023-04-03T11:19:04;113.63;;;107.85;;
60614;SDS011;46444;45.590;5.284;2023-04-03T11:21:34;147.75;;;140.35;;
60614;SDS011;46444;45.590;5.284;2023-04-03T11:24:05;164.45;;;156.40;;
60614;SDS011;46444;45.590;5.284;2023-04-03T11:26:38;210.82;;;200.88;;
60614;SDS011;46444;45.590;5.284;2023-04-03T11:29:09;168.50;;;160.35;;
60614;SDS011;46444;45.590;5.284;2023-04-03T11:31:42;144.80;;;137.63;;
60614;SDS011;46444;45.590;5.284;2023-04-03T11:34:30;170.07;;;161.93;;
60614;SDS011;46444;45.590;5.284;2023-04-03T11:36:59;176.73;;;168.30;;
60614;SDS011;46444;45.590;5.284;2023-04-03T11:39:33;194.15;;;185.00;;
60614;SDS011;46444;45.590;5.284;2023-04-03T11:42:13;115.05;;;109.40;;
60614;SDS011;46444;45.590;5.284;2023-04-03T11:44:41;155.20;;;147.80;;
60614;SDS011;46444;45.590;5.284;2023-04-03T11:47:07;116.70;;;110.78;;
60614;SDS011;46444;45.590;5.284;2023-04-03T11:49:58;127.88;;;121.45;;
60614;SDS011;46444;45.590;5.284;2023-04-03T12:16:02;99.60;;;94.27;;
60614;SDS011;46444;45.590;5.284;2023-04-03T12:21:06;81.15;;;76.88;;
60614;SDS011;46444;45.590;5.284;2023-04-03T12:26:00;99.00;;;93.72;;
60614;SDS011;46444;45.590;5.284;2023-04-03T12:28:46;60.63;;;57.20;;
60614;SDS011;46444;45.590;5.284;2023-04-03T12:31:13;64.90;;;61.33;;
60614;SDS011;46444;45.590;5.284;2023-04-03T12:34:00;88.50;;;83.93;;
60614;SDS011;46444;45.590;5.284;2023-04-03T12:39:33;47.53;;;44.95;;
60614;SDS011;46444;45.590;5.284;2023-04-03T12:47:27;48.72;;;45.97;;
60614;SDS011;46444;45.590;5.284;2023-04-03T12:49:57;57.92;;;54.60;;
60614;SDS011;46444;45.590;5.284;2023-04-03T12:55:18;45.53;;;43.05;;
60614;SDS011;46444;45.590;5.284;2023-04-03T12:57:45;61.60;;;58.15;;
60614;SDS011;46444;45.590;5.284;2023-04-03T13:02:48;55.50;;;52.28;;
60614;SDS011;46444;45.590;5.284;2023-04-03T13:05:15;42.90;;;40.45;;
60614;SDS011;46444;45.590;5.284;2023-04-03T13:07:43;53.40;;;50.38;;
60614;SDS011;46444;45.590;5.284;2023-04-03T13:10:16;55.35;;;52.35;;
60614;SDS011;46444;45.590;5.284;2023-04-03T13:12:50;52.28;;;49.38;;
60614;SDS011;46444;45.590;5.284;2023-04-03T13:15:19;43.95;;;41.42;;
60614;SDS011;46444;45.590;5.284;2023-04-03T13:17:48;62.05;;;58.70;;
60614;SDS011;46444;45.590;5.284;2023-04-03T13:20:21;44.72;;;41.90;;
60614;SDS011;46444;45.590;5.284;2023-04-03T13:23:05;63.22;;;59.95;;
60614;SDS011;46444;45.590;5.284;2023-04-03T13:25:35;56.65;;;53.20;;
60614;SDS011;46444;45.590;5.284;2023-04-03T13:28:04;45.38;;;42.75;;
60614;SDS011;46444;45.590;5.284;2023-04-03T13:30:32;45.75;;;42.78;;
60614;SDS011;46444;45.590;5.284;2023-04-03T13:33:02;44.33;;;41.28;;
60614;SDS011;46444;45.590;5.284;2023-04-03T13:38:00;59.90;;;56.40;;
60614;SDS011;46444;45.590;5.284;2023-04-03T13:40:27;31.10;;;29.13;;
60614;SDS011;46444;45.590;5.284;2023-04-03T13:43:01;26.98;;;25.40;;
60614;SDS011;46444;45.590;5.284;2023-04-03T13:45:53;28.98;;;26.98;;
60614;SDS011;46444;45.590;5.284;2023-04-03T13:48:21;28.63;;;26.92;;
60614;SDS011;46444;45.590;5.284;2023-04-03T13:50:58;28.42;;;26.65;;
60614;SDS011;46444;45.590;5.284;2023-04-03T13:53:26;30.45;;;28.65;;
60614;SDS011;46444;45.590;5.284;2023-04-03T13:58:28;24.40;;;22.98;;
60614;SDS011;46444;45.590;5.284;2023-04-03T14:00:56;24.00;;;22.60;;
60614;SDS011;46444;45.590;5.284;2023-04-03T14:03:41;19.38;;;18.17;;
60614;SDS011;46444;45.590;5.284;2023-04-03T14:06:18;26.15;;;24.70;;
60614;SDS011;46444;45.590;5.284;2023-04-03T14:08:44;25.73;;;24.27;;
60614;SDS011;46444;45.590;5.284;2023-04-03T14:11:14;22.90;;;21.58;;
60614;SDS011;46444;45.590;5.284;2023-04-03T14:16:07;25.15;;;23.70;;
60614;SDS011;46444;45.590;5.284;2023-04-03T14:18:32;18.75;;;17.65;;
60614;SDS011;46444;45.590;5.284;2023-04-03T14:20:57;19.05;;;17.95;;
60614;SDS011;46444;45.590;5.284;2023-04-03T14:23:23;19.88;;;18.48;;
60614;SDS011;46444;45.590;5.284;2023-04-03T14:25:48;17.67;;;16.63;;
60614;SDS011;46444;45.590;5.284;2023-04-03T14:28:16;18.50;;;17.40;;
60614;SDS011;46444;45.590;5.284;2023-04-03T14:30:44;19.33;;;18.13;;
60614;SDS011;46444;45.590;5.284;2023-04-03T14:33:12;17.77;;;16.67;;
60614;SDS011;46444;45.590;5.284;2023-04-03T14:35:40;29.20;;;27.60;;
60614;SDS011;46444;45.590;5.284;2023-04-03T14:38:12;16.30;;;15.27;;
60614;SDS011;46444;45.590;5.284;2023-04-03T14:40:47;15.20;;;13.77;;
60614;SDS011;46444;45.590;5.284;2023-04-03T14:43:13;13.50;;;12.68;;
60614;SDS011;46444;45.590;5.284;2023-04-03T14:45:38;11.98;;;11.10;;
60614;SDS011;46444;45.590;5.284;2023-04-03T14:48:04;13.77;;;12.98;;
60614;SDS011;46444;45.590;5.284;2023-04-03T14:50:34;15.57;;;14.27;;
60614;SDS011;46444;45.590;5.284;2023-04-03T14:53:00;20.00;;;18.25;;
60614;SDS011;46444;45.590;5.284;2023-04-03T14:55:25;20.83;;;19.02;;
60614;SDS011;46444;45.590;5.284;2023-04-03T14:57:52;16.23;;;14.77;;
60614;SDS011;46444;45.590;5.284;2023-04-03T15:00:19;18.67;;;17.10;;
60614;SDS011;46444;45.590;5.284;2023-04-03T15:02:46;22.02;;;19.77;;
60614;SDS011;46444;45.590;5.284;2023-04-03T15:05:12;27.60;;;21.45;;
60614;SDS011;46444;45.590;5.284;2023-04-03T15:07:40;24.33;;;21.60;;
60614;SDS011;46444;45.590;5.284;2023-04-03T15:10:17;12.52;;;11.52;;
60614;SDS011;46444;45.590;5.284;2023-04-03T15:12:50;13.68;;;12.38;;
60614;SDS011;46444;45.590;5.284;2023-04-03T15:15:16;12.80;;;11.80;;
60614;SDS011;46444;45.590;5.284;2023-04-03T15:17:44;12.95;;;11.93;;
60614;SDS011;46444;45.590;5.284;2023-04-03T15:20:14;13.57;;;12.68;;
60614;SDS011;46444;45.590;5.284;2023-04-03T15:22:42;12.77;;;11.98;;
60614;SDS011;46444;45.590;5.284;2023-04-03T15:25:08;11.27;;;10.43;;
60614;SDS011;46444;45.590;5.284;2023-04-03T15:27:33;11.10;;;10.23;;
60614;SDS011;46444;45.590;5.284;2023-04-03T15:29:59;10.55;;;9.60;;
60614;SDS011;46444;45.590;5.284;2023-04-03T15:32:25;11.68;;;10.88;;
60614;SDS011;46444;45.590;5.284;2023-04-03T15:34:50;13.18;;;12.30;;
60614;SDS011;46444;45.590;5.284;2023-04-03T15:37:15;12.57;;;11.57;;
60614;SDS011;46444;45.590;5.284;2023-04-03T15:39:41;11.60;;;10.77;;
60614;SDS011;46444;45.590;5.284;2023-04-03T15:42:06;11.98;;;11.18;;
60614;SDS011;46444;45.590;5.284;2023-04-03T15:44:32;10.32;;;9.65;;
60614;SDS011;46444;45.590;5.284;2023-04-03T15:47:00;11.75;;;10.90;;
60614;SDS011;46444;45.590;5.284;2023-04-03T15:49:26;10.95;;;10.15;;
60614;SDS011;46444;45.590;5.284;2023-04-03T15:51:52;11.10;;;10.07;;
60614;SDS011;46444;45.590;5.284;2023-04-03T15:54:17;10.95;;;10.18;;
60614;SDS011;46444;45.590;5.284;2023-04-03T15:56:43;10.85;;;10.20;;
60614;SDS011;46444;45.590;5.284;2023-04-03T15:59:09;10.52;;;9.90;;
60614;SDS011;46444;45.590;5.284;2023-04-03T16:01:35;10.30;;;9.68;;
60614;SDS011;46444;45.590;5.284;2023-04-03T16:04:01;9.30;;;8.68;;
60614;SDS011;46444;45.590;5.284;2023-04-03T16:06:26;9.82;;;9.02;;
60614;SDS011;46444;45.590;5.284;2023-04-03T16:08:54;9.65;;;8.95;;
60614;SDS011;46444;45.590;5.284;2023-04-03T16:11:22;10.13;;;9.43;;
60614;SDS011;46444;45.590;5.284;2023-04-03T16:13:48;11.00;;;10.10;;
60614;SDS011;46444;45.590;5.284;2023-04-03T16:16:14;10.10;;;9.32;;
60614;SDS011;46444;45.590;5.284;2023-04-03T16:18:39;8.52;;;7.93;;
60614;SDS011;46444;45.590;5.284;2023-04-03T16:21:05;8.80;;;8.15;;
60614;SDS011;46444;45.590;5.284;2023-04-03T16:23:31;10.52;;;9.93;;
60614;SDS011;46444;45.590;5.284;2023-04-03T16:25:56;8.82;;;8.23;;
60614;SDS011;46444;45.590;5.284;2023-04-03T16:28:22;7.45;;;6.85;;
60614;SDS011;46444;45.590;5.284;2023-04-03T16:30:47;6.70;;;6.20;;
60614;SDS011;46444;45.590;5.284;2023-04-03T16:33:14;5.70;;;5.40;;
60614;SDS011;46444;45.590;5.284;2023-04-03T16:35:39;8.80;;;7.75;;
60614;SDS011;46444;45.590;5.284;2023-04-03T16:38:06;7.05;;;6.45;;
60614;SDS011;46444;45.590;5.284;2023-04-03T16:40:32;7.28;;;6.78;;
60614;SDS011;46444;45.590;5.284;2023-04-03T16:42:58;8.38;;;7.55;;
60614;SDS011;46444;45.590;5.284;2023-04-03T16:45:24;11.10;;;10.10;;
60614;SDS011;46444;45.590;5.284;2023-04-03T16:47:49;6.45;;;5.85;;
60614;SDS011;46444;45.590;5.284;2023-04-03T16:50:15;8.23;;;7.53;;
60614;SDS011;46444;45.590;5.284;2023-04-03T16:52:40;11.93;;;10.93;;
60614;SDS011;46444;45.590;5.284;2023-04-03T16:55:06;7.03;;;6.50;;
60614;SDS011;46444;45.590;5.284;2023-04-03T16:57:32;9.20;;;8.52;;
60614;SDS011;46444;45.590;5.284;2023-04-03T16:59:57;8.23;;;7.72;;
60614;SDS011;46444;45.590;5.284;2023-04-03T17:02:23;13.52;;;12.13;;
60614;SDS011;46444;45.590;5.284;2023-04-03T17:04:52;11.57;;;10.38;;
60614;SDS011;46444;45.590;5.284;2023-04-03T17:07:21;11.50;;;8.70;;
60614;SDS011;46444;45.590;5.284;2023-04-03T17:09:48;16.80;;;12.35;;
60614;SDS011;46444;45.590;5.284;2023-04-03T17:12:14;9.52;;;7.60;;
60614;SDS011;46444;45.590;5.284;2023-04-03T17:14:39;12.30;;;8.90;;
60614;SDS011;46444;45.590;5.284;2023-04-03T17:17:05;6.43;;;5.22;;
60614;SDS011;46444;45.590;5.284;2023-04-03T17:19:31;6.05;;;4.43;;
60614;SDS011;46444;45.590;5.284;2023-04-03T17:21:56;7.35;;;6.43;;
60614;SDS011;46444;45.590;5.284;2023-04-03T17:24:22;17.95;;;13.50;;
60614;SDS011;46444;45.590;5.284;2023-04-03T17:26:48;3.78;;;3.40;;
60614;SDS011;46444;45.590;5.284;2023-04-03T17:29:14;6.72;;;6.13;;